首页
METAR-TAF:

METAR-TAF

机场 :

Red Lake, 安大略省, 加拿大

纬度: 51-04N, 经度: 093-48W, 海拔: 375米

当前天气观测

该预报发布于25小时和10分钟前的21:00 UTC
风速13节,风向西南,有时为21节阵风
温度 27°C
湿度 51%
气压 998 hPa
能見度: 24.1公里
散云层高于5500英尺
多云层高于9800英尺
多云层高于24000英尺

METAR: CYRL 242100Z 23013G21KT 15SM SCT055 BKN098 BKN240 27/16 A2947 RMK CU3AC2CI1 SLP983 DENSITY ALT 3400FT

时间: 17:10 (22:10 UTC)

预报

该预报发布于26小时和30分钟前的19:40 UTC
预报有效从24日的 20点(UTC)到 25日的 02点(UTC)
风速12节,风向,有时为22节阵风
能見度: 10公里
散云层高于2500英尺
多云层高于12000英尺
短暂存在
从 24日的 20点(UTC)到 24日的 23点(UTC)
能見度: 10公里
多云层高于2500英尺
阴天层高于8000英尺
小阵雨
几率 30%
从 24日的 20点(UTC)到 24日的 23点(UTC)
风速20节,风向多变,有时为30节阵风
能見度: 4.8公里
多云层高于2000英尺
阴天层高于4000英尺, 积雨云.
雷暴, 雨, 轻雾
从 24日的 2300点(UTC)
风速15节,风向西南,有时为25节阵风
能見度: 10公里
少量云层高于1500英尺
多云层高于3000英尺
短暂存在
从 24日的 23点(UTC)到 25日的 02点(UTC)
能見度: 10公里
多云层高于1500英尺
多云层高于3000英尺
小阵雨

TAF: CYRL 241940Z 2420/2502 18012G22KT P6SM SCT025 BKN120 TEMPO 2420/2423 P6SM -SHRA BKN025 OVC080 PROB30 2420/2423 VRB20G30KT 3SM TSRA BR BKN020 OVC040CB FM242300 22015G25KT P6SM FEW015 BKN030 TEMPO 2423/2502 P6SM -SHRA BKN015 BKN030 RMK NXT FCST BY 251100Z

超过4000个机场的气象观测和天气预报(METAR&TAF报告)。

可查询的气象台以黄色和红色小点在地图上表示。

将鼠标移到小点上方,可查看气象台名称。

然后点击查看天气观测和预报。

如需切换地图:点击带黑十字的绿色按钮放大地图;点击带横线的绿色按钮缩小地图;或者点击绿色箭头查看邻近地区的地图。


METAR-TAF: